KDAL/DAL METAR and TAF weather

Enter ICAO airport designator
Station Type Date Time Source
KDAL METAR 2020/09/24 10:53 UTC NOAA

KDAL 241053Z 36005KT 10SM FEW015 19/16 A2993 RMK AO2 SLP128 T01890156 $


Station Type Date Time Source
KDAL Decoded METAR 2020/09/24 10:53 UTC NOAA

DALLAS LOVE FIELD, TX, United States (KDAL) 32-51N 096-51W 158M
Sep 24, 2020 - 06:53 AM EDT / 2020.09.24 1053 UTC
Wind: from the N (360 degrees) at 6 MPH (5 KT):0
Visibility: 10 mile(s):0
Sky conditions: mostly clear
Temperature: 66.0 F (18.9 C)
Dew Point: 60.1 F (15.6 C)
Relative Humidity: 81%
Pressure (altimeter): 29.93 in. Hg (1013 hPa)
ob: KDAL 241053Z 36005KT 10SM FEW015 19/16 A2993 RMK AO2 SLP128 T01890156
cycle: 11

Station Type Date Time Source
KDAL TAF 2020/09/24 12:22 UTC NOAA

TAF KDAL 241120Z 2412/2512 36008KT P6SM FEW009 OVC025
TEMPO 2412/2416 OVC015
FM241700 36009KT P6SM SCT035
FM250100 09004KT P6SM SKC
FM250800 17005KT P6SM SKC

Example: see airport list